Chance, South Dakota
Current Conditions -  °F | °C
As of 3:53 AM on Friday 24 Oct 2014 (Local Time) from KHEI Reporting Station
Clear Clear  
Wind Chill: 44°   Ceiling: Unl
Heat Index: 44°   Visibility: 10mi
Dew Point: 29°   Wind: 3mph
Humidity: 55%   Direction: 320°NW
Pressure: 29.87"   Gusts: NA
Location:  45.5161°N, 102.519°W
Report Text: KHEI 240953Z AUTO 32003KT 10SM CLR 07/M02 A2987 RMK AO2 SLP113 T00671017
Loading
Personal Weather Stations






























Interactive Weather Map
Tropical Storm Tracking
New forecast layout! Learn more

10-Day Weather Forecast

Advertisements
Track Severe Weather on mobile